createdAt,value
2023-09-19T00:00:50.638Z,97791.88
2023-09-19T00:06:40.404Z,97784.31
2023-09-19T00:09:12.086Z,97777.17
2023-09-19T00:11:40.693Z,97768.61
2023-09-19T00:14:10.399Z,97766.74
2023-09-19T00:16:39.044Z,97764.98
2023-09-19T00:19:10.394Z,97761.02
2023-09-19T00:21:39.110Z,97766.45
2023-09-19T00:24:08.212Z,97769.05
2023-09-19T00:26:36.709Z,97766.10
2023-09-19T00:29:05.528Z,97760.60
2023-09-19T00:31:34.068Z,97754.16
2023-09-19T00:34:05.644Z,97749.29
2023-09-19T00:36:35.722Z,97745.90
2023-09-19T00:39:06.166Z,97743.56
2023-09-19T00:41:39.716Z,97735.23
2023-09-19T00:44:08.377Z,97732.48
2023-09-19T00:46:38.287Z,97730.10
2023-09-19T00:49:10.932Z,97725.13
2023-09-19T00:51:43.160Z,97718.31
2023-09-19T00:54:14.309Z,97716.79
2023-09-19T00:56:43.947Z,97717.75
2023-09-19T00:59:13.241Z,97715.11
2023-09-19T01:01:41.916Z,97714.77
2023-09-19T01:04:10.923Z,97718.55
2023-09-19T01:06:41.019Z,97719.63
2023-09-19T01:09:09.712Z,97716.99
2023-09-19T01:11:47.353Z,97709.27
2023-09-19T01:15:01.361Z,97701.70
2023-09-19T01:17:37.388Z,97693.45
2023-09-19T01:20:24.690Z,97687.41
2023-09-19T01:23:08.587Z,97688.30
2023-09-19T01:25:57.278Z,97689.38
2023-09-19T01:28:28.749Z,97689.45
2023-09-19T01:31:02.088Z,97691.31
2023-09-19T01:34:05.590Z,97691.12
2023-09-19T01:36:37.963Z,97679.79
2023-09-19T01:39:12.200Z,97681.83
2023-09-19T01:42:06.180Z,97680.14
2023-09-19T01:44:50.576Z,97679.16
2023-09-19T01:47:34.977Z,97683.65
2023-09-19T01:50:12.869Z,97686.51
2023-09-19T01:52:50.122Z,97681.38
2023-09-19T01:55:20.596Z,97676.60
2023-09-19T01:58:06.008Z,97675.61
2023-09-19T02:00:41.615Z,97672.18
2023-09-19T02:03:11.697Z,97670.84
2023-09-19T02:05:40.870Z,97679.35
2023-09-19T02:08:09.641Z,97674.94
2023-09-19T02:10:39.454Z,97672.15
2023-09-19T02:13:08.359Z,97672.52
2023-09-19T02:15:39.363Z,97674.65
2023-09-19T02:18:08.521Z,97686.72
2023-09-19T02:20:37.008Z,97683.48
2023-09-19T02:23:06.287Z,97673.67
2023-09-19T02:25:35.153Z,97665.55
2023-09-19T02:28:04.348Z,97662.26
2023-09-19T02:30:33.645Z,97653.90
2023-09-19T02:33:06.975Z,97654.39
2023-09-19T02:35:37.597Z,97652.30
2023-09-19T02:38:07.902Z,97654.55
2023-09-19T02:40:37.951Z,97655.34
2023-09-19T02:43:06.691Z,97653.85
2023-09-19T02:45:40.874Z,97655.24
2023-09-19T02:48:09.673Z,97651.14
2023-09-19T02:50:38.303Z,97649.02
2023-09-19T02:53:07.946Z,97650.91
2023-09-19T02:55:36.596Z,97645.67
2023-09-19T02:58:06.598Z,97650.10
2023-09-19T03:00:36.839Z,97657.15
2023-09-19T03:03:07.428Z,97649.98
2023-09-19T03:05:36.252Z,97646.73
2023-09-19T03:08:06.201Z,97650.94
2023-09-19T03:10:34.937Z,97650.48
2023-09-19T03:13:03.770Z,97649.63
2023-09-19T03:15:32.366Z,97646.23
2023-09-19T03:18:00.978Z,97642.47
2023-09-19T03:20:29.526Z,97644.72
2023-09-19T03:22:58.715Z,97641.56
2023-09-19T03:25:27.520Z,97637.39
2023-09-19T03:27:59.317Z,97640.02
2023-09-19T03:30:28.175Z,97636.93
2023-09-19T03:32:56.718Z,97630.05
2023-09-19T03:35:25.223Z,97624.64
2023-09-19T03:37:54.004Z,97623.49
2023-09-19T03:40:24.706Z,97624.90
2023-09-19T03:42:53.450Z,97620.45
2023-09-19T03:45:21.980Z,97617.79
2023-09-19T03:47:53.858Z,97616.97
2023-09-19T03:50:24.626Z,97614.59
2023-09-19T03:52:58.392Z,97618.09
2023-09-19T03:55:27.001Z,97618.52
2023-09-19T03:57:55.801Z,97618.62
2023-09-19T04:00:27.740Z,97619.15
2023-09-19T04:02:58.805Z,97616.93
2023-09-19T04:05:28.078Z,97612.76
2023-09-19T04:07:56.719Z,97618.20
2023-09-19T04:10:25.315Z,97615.95
2023-09-19T04:12:54.925Z,97612.97
2023-09-19T04:15:25.442Z,97610.23
2023-09-19T04:17:58.987Z,97610.61
2023-09-19T04:20:27.466Z,97613.27
2023-09-19T04:22:56.091Z,97612.96
2023-09-19T04:25:24.903Z,97614.19
2023-09-19T04:27:53.590Z,97616.67
2023-09-19T04:30:22.731Z,97610.23
2023-09-19T04:32:52.823Z,97605.25
2023-09-19T04:35:22.218Z,97603.08
2023-09-19T04:37:52.288Z,97601.75
2023-09-19T04:40:23.598Z,97600.30
2023-09-19T04:42:58.103Z,97594.92
2023-09-19T04:45:28.228Z,97598.70
2023-09-19T04:47:57.730Z,97598.63
2023-09-19T04:50:28.235Z,97601.48
2023-09-19T04:52:56.851Z,97598.48
2023-09-19T04:55:25.441Z,97595.62
2023-09-19T04:57:55.063Z,97600.92
2023-09-19T05:00:25.892Z,97600.73
2023-09-19T05:03:00.109Z,97599.48
2023-09-19T05:05:30.025Z,97601.34
2023-09-19T05:08:06.576Z,97598.44
2023-09-19T05:10:39.223Z,97598.70
2023-09-19T05:13:09.126Z,97598.88
2023-09-19T05:15:38.066Z,97597.92
2023-09-19T05:18:07.680Z,97598.77
2023-09-19T05:20:39.325Z,97601.05
2023-09-19T05:23:18.051Z,97603.11
2023-09-19T05:25:46.611Z,97604.71
2023-09-19T05:28:16.698Z,97606.71
2023-09-19T05:30:48.453Z,97603.42
2023-09-19T05:33:19.711Z,97606.20
2023-09-19T05:35:51.972Z,97610.52
2023-09-19T05:38:21.607Z,97610.34
2023-09-19T05:40:52.353Z,97605.79
2023-09-19T05:43:21.329Z,97599.20
2023-09-19T05:45:49.872Z,97594.29
2023-09-19T05:48:19.244Z,97592.20
2023-09-19T05:50:50.341Z,97590.69
2023-09-19T05:53:20.030Z,97591.52
2023-09-19T05:55:48.479Z,97591.23
2023-09-19T05:58:19.510Z,97594.28
2023-09-19T06:00:49.681Z,97589.05
2023-09-19T06:03:19.373Z,97587.80
2023-09-19T06:05:50.648Z,97589.75
2023-09-19T06:08:19.528Z,97583.00
2023-09-19T06:10:48.473Z,97579.95
2023-09-19T06:13:17.069Z,97576.68
2023-09-19T06:15:45.576Z,97577.84
2023-09-19T06:18:21.086Z,97577.92
2023-09-19T06:20:53.173Z,97590.20
2023-09-19T06:23:22.960Z,97591.52
2023-09-19T06:25:51.534Z,97590.48
2023-09-19T06:28:25.270Z,97588.89
2023-09-19T06:30:54.625Z,97586.55
2023-09-19T06:33:23.367Z,97584.38
2023-09-19T06:35:54.166Z,97580.25
2023-09-19T06:38:22.772Z,97573.05
2023-09-19T06:40:51.336Z,97572.50
2023-09-19T06:43:20.038Z,97576.98
2023-09-19T06:45:48.578Z,97577.52
2023-09-19T06:48:17.028Z,97586.18
2023-09-19T06:50:46.123Z,97593.63
2023-09-19T06:53:15.348Z,97600.05
2023-09-19T06:55:45.360Z,97595.55
2023-09-19T06:58:13.870Z,97596.88
2023-09-19T07:00:42.360Z,97593.80
2023-09-19T07:03:13.324Z,97597.52
2023-09-19T07:05:42.278Z,97604.08
2023-09-19T07:08:14.747Z,97607.33
2023-09-19T07:10:50.030Z,97614.90
2023-09-19T07:13:19.526Z,97617.90
2023-09-19T07:15:48.356Z,97617.71
2023-09-19T07:18:19.246Z,97622.33
2023-09-19T07:20:51.862Z,97631.30
2023-09-19T07:23:23.529Z,97636.08
2023-09-19T07:25:52.585Z,97635.44
2023-09-19T07:28:21.616Z,97638.18
2023-09-19T07:30:52.522Z,97642.71
2023-09-19T07:33:21.016Z,97646.88
2023-09-19T07:35:49.788Z,97653.90
2023-09-19T07:38:19.379Z,97659.70
2023-09-19T07:40:48.122Z,97665.34
2023-09-19T07:43:16.933Z,97666.09
2023-09-19T07:45:45.674Z,97670.30
2023-09-19T07:48:16.691Z,97667.73
2023-09-19T07:50:45.437Z,97668.98
2023-09-19T07:53:18.824Z,97677.02
2023-09-19T07:55:49.739Z,97671.39
2023-09-19T07:58:18.565Z,97669.81
2023-09-19T08:00:47.663Z,97673.06
2023-09-19T08:03:17.567Z,97676.04
2023-09-19T08:05:47.567Z,97678.75
2023-09-19T08:08:16.966Z,97673.06
2023-09-19T08:10:47.633Z,97670.30
2023-09-19T08:13:18.865Z,97674.02
2023-09-19T08:15:47.934Z,97677.16
